KSAD/SAD METAR and TAF weather

Enter ICAO airport designator
Station Type Date Time Source
KSAD METAR 2018/12/13 21:51 UTC NOAA

KSAD 132151Z AUTO 30006KT 10SM CLR 14/M16 A3023 RMK AO2 SLP222 T01441156


Station Type Date Time Source
KSAD Decoded METAR 2018/12/13 21:51 UTC NOAA

SAFFORD MUNICIPAL AIRPORT, AZ, United States (KSAD) 32-51N 109-38W 962M
Dec 13, 2018 - 04:51 PM EST / 2018.12.13 2151 UTC
Wind: from the WNW (300 degrees) at 7 MPH (6 KT):0
Visibility: 10 mile(s):0
Sky conditions: clear
Temperature: 57.9 F (14.4 C)
Dew Point: 3.9 F (-15.6 C)
Relative Humidity: 11%
Pressure (altimeter): 30.23 in. Hg (1023 hPa)
ob: KSAD 132151Z AUTO 30006KT 10SM CLR 14/M16 A3023 RMK AO2 SLP222 T01441156
cycle: 22

Station Type Date Time Source
KSAD TAF UTC NOAA

Error!


Example: see airport list